createdAt,value
2018-03-23T00:00:33.378Z,8.11
2018-03-23T00:03:00.838Z,8.87
2018-03-23T00:05:28.301Z,8.65
2018-03-23T00:07:56.071Z,8.44
2018-03-23T00:10:23.540Z,8.88
2018-03-23T00:12:51.003Z,8.73
2018-03-23T00:15:18.753Z,8.28
2018-03-23T00:17:46.212Z,8.42
2018-03-23T00:20:13.670Z,8.92
2018-03-23T00:22:41.444Z,8.69
2018-03-23T00:25:08.913Z,8.40
2018-03-23T00:27:36.376Z,9.05
2018-03-23T00:30:04.141Z,8.51
2018-03-23T00:32:31.601Z,8.61
2018-03-23T00:34:59.059Z,8.75
2018-03-23T00:37:26.813Z,8.32
2018-03-23T00:39:54.268Z,8.27
2018-03-23T00:42:21.726Z,7.93
2018-03-23T00:44:50.748Z,8.51
2018-03-23T00:47:18.204Z,8.45
2018-03-23T00:49:45.698Z,8.59
2018-03-23T00:52:13.738Z,8.51
2018-03-23T00:54:41.197Z,8.94
2018-03-23T00:57:08.657Z,8.66
2018-03-23T00:59:36.410Z,8.76
2018-03-23T01:02:03.867Z,8.92
2018-03-23T01:04:31.326Z,8.30
2018-03-23T01:06:59.098Z,8.63
2018-03-23T01:09:26.565Z,8.52
2018-03-23T01:11:54.017Z,8.80
2018-03-23T01:14:21.967Z,9.08
2018-03-23T01:16:49.432Z,8.86
2018-03-23T01:19:16.965Z,9.20
2018-03-23T01:21:44.724Z,9.17
2018-03-23T01:24:12.194Z,9.06
2018-03-23T01:26:39.657Z,8.34
2018-03-23T01:29:07.469Z,8.48
2018-03-23T01:31:34.932Z,7.87
2018-03-23T01:34:02.404Z,7.82
2018-03-23T01:36:30.050Z,7.66
2018-03-23T01:38:57.514Z,7.72
2018-03-23T01:41:24.981Z,7.68
2018-03-23T01:43:52.842Z,7.65
2018-03-23T01:46:20.993Z,8.18
2018-03-23T01:48:48.449Z,7.79
2018-03-23T01:51:16.333Z,7.83
2018-03-23T01:53:43.790Z,8.04
2018-03-23T01:56:11.283Z,8.40
2018-03-23T01:58:39.041Z,8.01
2018-03-23T02:01:06.499Z,8.06
2018-03-23T02:03:33.957Z,8.28
2018-03-23T02:06:01.820Z,8.06
2018-03-23T02:08:29.275Z,8.33
2018-03-23T02:10:56.742Z,8.09
2018-03-23T02:13:24.454Z,8.39
2018-03-23T02:15:51.916Z,7.86
2018-03-23T02:18:19.378Z,8.35
2018-03-23T02:20:47.194Z,7.98
2018-03-23T02:23:14.654Z,8.66
2018-03-23T02:25:42.381Z,8.71
2018-03-23T02:28:10.114Z,8.67
2018-03-23T02:30:37.590Z,8.75
2018-03-23T02:33:05.064Z,8.69
2018-03-23T02:35:32.829Z,8.34
2018-03-23T02:38:00.299Z,8.27
2018-03-23T02:40:27.772Z,8.34
2018-03-23T02:42:55.571Z,8.36
2018-03-23T02:45:23.034Z,8.75
2018-03-23T02:47:53.006Z,8.63
2018-03-23T02:50:20.605Z,8.41
2018-03-23T02:52:48.073Z,8.05
2018-03-23T02:55:15.550Z,8.24
2018-03-23T02:57:43.411Z,8.36
2018-03-23T03:00:10.874Z,8.07
2018-03-23T03:02:38.349Z,8.33
2018-03-23T03:05:06.141Z,8.30
2018-03-23T03:07:33.611Z,8.86
2018-03-23T03:10:01.069Z,8.23
2018-03-23T03:12:28.781Z,8.39
2018-03-23T03:14:56.243Z,8.39
2018-03-23T03:17:23.714Z,9.01
2018-03-23T03:19:51.461Z,8.34
2018-03-23T03:22:18.924Z,8.02
2018-03-23T03:24:46.386Z,8.52
2018-03-23T03:27:14.154Z,8.44
2018-03-23T03:29:41.621Z,8.39
2018-03-23T03:32:09.073Z,8.33
2018-03-23T03:34:37.146Z,8.47
2018-03-23T03:37:04.609Z,8.71
2018-03-23T03:39:32.070Z,8.35
2018-03-23T03:41:59.824Z,8.48
2018-03-23T03:44:27.292Z,8.61
2018-03-23T03:46:54.756Z,8.47
2018-03-23T03:49:23.478Z,8.36
2018-03-23T03:51:50.944Z,8.41
2018-03-23T03:54:18.412Z,8.85
2018-03-23T03:56:46.762Z,8.80
2018-03-23T03:59:14.218Z,9.19
2018-03-23T04:01:41.684Z,8.74
2018-03-23T04:04:09.418Z,9.04
2018-03-23T04:06:36.881Z,9.39
2018-03-23T04:09:04.363Z,8.90
2018-03-23T04:11:32.107Z,8.94
2018-03-23T04:13:59.565Z,8.92
2018-03-23T04:16:27.013Z,8.61
2018-03-23T04:18:54.809Z,8.70
2018-03-23T04:21:22.279Z,8.73
2018-03-23T04:23:49.732Z,8.46
2018-03-23T04:26:17.496Z,8.96
2018-03-23T04:28:44.964Z,8.88
2018-03-23T04:31:12.426Z,8.86
2018-03-23T04:33:40.180Z,7.77
2018-03-23T04:36:07.643Z,7.86
2018-03-23T04:38:35.107Z,7.80
2018-03-23T04:41:02.897Z,7.81
2018-03-23T04:43:30.363Z,7.88
2018-03-23T04:45:57.829Z,7.90
2018-03-23T04:48:25.557Z,7.44
2018-03-23T04:50:53.381Z,7.79
2018-03-23T04:53:20.842Z,7.83
2018-03-23T04:55:48.851Z,7.51
2018-03-23T04:58:16.306Z,7.98
2018-03-23T05:00:43.758Z,7.46
2018-03-23T05:03:11.541Z,7.68
2018-03-23T05:05:38.997Z,7.86
2018-03-23T05:08:06.502Z,7.54
2018-03-23T05:10:34.237Z,7.78
2018-03-23T05:13:01.694Z,7.74
2018-03-23T05:15:29.150Z,7.48
2018-03-23T05:17:56.984Z,7.44
2018-03-23T05:20:24.437Z,7.54
2018-03-23T05:22:51.897Z,7.80
2018-03-23T05:25:19.909Z,7.74
2018-03-23T05:27:47.369Z,7.65
2018-03-23T05:30:14.829Z,7.50
2018-03-23T05:32:42.597Z,7.29
2018-03-23T05:35:10.053Z,7.85
2018-03-23T05:37:37.515Z,7.69
2018-03-23T05:40:05.897Z,7.78
2018-03-23T05:42:33.362Z,7.33
2018-03-23T05:45:00.834Z,7.47
2018-03-23T05:47:28.588Z,7.56
2018-03-23T05:49:56.045Z,7.82
2018-03-23T05:52:24.137Z,7.86
2018-03-23T05:54:51.874Z,7.66
2018-03-23T05:57:19.340Z,7.64
2018-03-23T05:59:46.806Z,7.63
2018-03-23T06:02:14.454Z,7.35
2018-03-23T06:04:41.919Z,7.98
2018-03-23T06:07:09.389Z,7.85
2018-03-23T06:09:37.269Z,7.84
2018-03-23T06:12:04.726Z,7.67
2018-03-23T06:14:32.181Z,8.08
2018-03-23T06:16:59.815Z,7.93
2018-03-23T06:19:27.276Z,7.63
2018-03-23T06:21:54.742Z,7.42
2018-03-23T06:24:22.685Z,7.44
2018-03-23T06:26:50.121Z,7.52
2018-03-23T06:29:17.582Z,7.34
2018-03-23T06:31:45.314Z,7.72
2018-03-23T06:34:12.794Z,7.50
2018-03-23T06:36:40.260Z,8.16
2018-03-23T06:39:08.306Z,7.81
2018-03-23T06:41:35.764Z,8.25
2018-03-23T06:44:03.222Z,8.22
2018-03-23T06:46:31.001Z,8.87
2018-03-23T06:48:58.463Z,8.51
2018-03-23T06:51:25.920Z,8.22
2018-03-23T06:53:54.307Z,8.53
2018-03-23T06:56:21.769Z,7.93
2018-03-23T06:58:49.222Z,8.42
2018-03-23T07:01:16.985Z,8.77
2018-03-23T07:03:44.440Z,8.36
2018-03-23T07:06:11.905Z,8.27
2018-03-23T07:08:39.837Z,8.26
2018-03-23T07:11:07.289Z,8.21
2018-03-23T07:13:34.748Z,8.73
2018-03-23T07:16:02.364Z,8.06
2018-03-23T07:18:29.826Z,8.59
2018-03-23T07:20:57.288Z,9.13
2018-03-23T07:23:25.053Z,8.36
2018-03-23T07:25:52.576Z,8.45
2018-03-23T07:28:20.028Z,8.62
2018-03-23T07:30:47.747Z,9.00
2018-03-23T07:33:15.222Z,9.00
2018-03-23T07:35:42.678Z,8.73
2018-03-23T07:38:10.737Z,9.16
2018-03-23T07:40:38.196Z,9.04
2018-03-23T07:43:05.650Z,9.04
2018-03-23T07:45:33.424Z,9.16
2018-03-23T07:48:00.893Z,8.56
2018-03-23T07:50:28.350Z,8.36
2018-03-23T07:52:56.097Z,9.08
2018-03-23T07:55:24.255Z,8.84
2018-03-23T07:57:51.717Z,9.19
2018-03-23T08:00:20.344Z,8.81
2018-03-23T08:02:47.808Z,9.65
2018-03-23T08:05:15.257Z,9.20
2018-03-23T08:07:43.012Z,9.36
2018-03-23T08:10:10.476Z,8.93
2018-03-23T08:12:37.939Z,9.33
2018-03-23T08:15:05.710Z,9.32
2018-03-23T08:17:33.160Z,8.50
2018-03-23T08:20:01.798Z,9.14
2018-03-23T08:22:29.630Z,9.33
2018-03-23T08:24:57.089Z,9.33
2018-03-23T08:27:24.567Z,9.06
2018-03-23T08:29:52.621Z,8.59
2018-03-23T08:32:20.076Z,9.10
2018-03-23T08:34:47.539Z,8.94
2018-03-23T08:37:15.299Z,9.68
2018-03-23T08:39:42.754Z,9.32
2018-03-23T08:42:10.216Z,8.91
2018-03-23T08:44:38.018Z,9.37
2018-03-23T08:47:05.445Z,9.30
2018-03-23T08:49:32.932Z,9.04
2018-03-23T08:52:00.669Z,10.03
2018-03-23T08:54:28.138Z,9.35
2018-03-23T08:56:55.983Z,9.41
2018-03-23T08:59:23.968Z,9.65
2018-03-23T09:01:51.424Z,9.76
2018-03-23T09:04:18.886Z,10.03
2018-03-23T09:06:46.588Z,9.47
2018-03-23T09:09:14.045Z,9.61
2018-03-23T09:11:41.502Z,9.81
2018-03-23T09:14:09.347Z,9.78
2018-03-23T09:16:36.866Z,9.80
2018-03-23T09:19:04.300Z,9.87
2018-03-23T09:21:32.025Z,9.79
2018-03-23T09:23:59.481Z,9.76
2018-03-23T09:26:26.938Z,9.90
2018-03-23T09:28:54.725Z,10.28
2018-03-23T09:31:22.186Z,9.91
2018-03-23T09:33:49.645Z,9.46
2018-03-23T09:36:17.405Z,9.52
2018-03-23T09:38:44.860Z,9.47
2018-03-23T09:41:12.316Z,9.66
2018-03-23T09:43:40.391Z,9.28
2018-03-23T09:46:07.861Z,9.66
2018-03-23T09:48:35.314Z,9.63
2018-03-23T09:51:03.084Z,10.11
2018-03-23T09:53:30.558Z,10.00
2018-03-23T09:55:58.033Z,10.36
2018-03-23T09:58:26.393Z,10.07
2018-03-23T10:00:53.862Z,10.12
2018-03-23T10:03:21.329Z,9.53
2018-03-23T10:05:49.083Z,9.90
2018-03-23T10:08:16.541Z,10.05
2018-03-23T10:10:44.006Z,10.17
2018-03-23T10:13:11.769Z,10.11
2018-03-23T10:15:39.257Z,10.35
2018-03-23T10:18:06.708Z,9.91
2018-03-23T10:20:34.454Z,9.80
2018-03-23T10:23:01.917Z,10.76
2018-03-23T10:25:29.373Z,9.90
2018-03-23T10:27:57.150Z,9.32
2018-03-23T10:30:24.611Z,10.18
2018-03-23T10:32:52.076Z,10.33
2018-03-23T10:35:19.754Z,9.88
2018-03-23T10:37:47.254Z,10.04
2018-03-23T10:40:14.724Z,9.94
2018-03-23T10:42:42.517Z,9.84
2018-03-23T10:45:09.992Z,10.23
2018-03-23T10:47:37.482Z,10.11
2018-03-23T10:50:05.506Z,10.12
2018-03-23T10:52:32.966Z,10.16
2018-03-23T10:55:00.446Z,10.09
2018-03-23T10:57:28.209Z,10.32
2018-03-23T10:59:57.894Z,10.13
2018-03-23T11:02:42.161Z,10.06
2018-03-23T11:05:09.636Z,10.66
2018-03-23T11:07:37.126Z,10.39
2018-03-23T11:10:04.841Z,10.57
2018-03-23T11:12:32.312Z,10.81
2018-03-23T11:14:59.782Z,10.00
2018-03-23T11:17:27.535Z,10.27
2018-03-23T11:19:55.068Z,11.13
2018-03-23T11:22:22.541Z,11.32
2018-03-23T11:24:50.268Z,11.37
2018-03-23T11:27:17.730Z,11.85
2018-03-23T11:29:45.188Z,11.61
2018-03-23T11:32:12.908Z,11.83
2018-03-23T11:34:40.376Z,11.61
2018-03-23T11:37:07.852Z,11.82
2018-03-23T11:39:35.603Z,11.46
2018-03-23T11:42:03.072Z,12.11
2018-03-23T11:44:30.533Z,12.00
2018-03-23T11:46:58.281Z,11.75
2018-03-23T11:49:25.749Z,11.96
2018-03-23T11:51:53.213Z,11.51
2018-03-23T11:54:21.254Z,12.44
2018-03-23T11:56:48.715Z,12.45
2018-03-23T11:59:16.172Z,11.42
2018-03-23T12:01:44.369Z,11.54
2018-03-23T12:04:11.835Z,11.93
2018-03-23T12:06:39.294Z,12.92
2018-03-23T12:09:07.582Z,11.81
2018-03-23T12:11:35.042Z,11.88
2018-03-23T12:14:02.501Z,11.73
2018-03-23T12:16:30.569Z,11.09
2018-03-23T12:18:58.034Z,11.43
2018-03-23T12:21:25.504Z,11.32
2018-03-23T12:23:53.557Z,11.28
2018-03-23T12:26:21.026Z,11.16
2018-03-23T12:28:48.492Z,11.15
2018-03-23T12:31:16.277Z,11.65
2018-03-23T12:33:43.751Z,11.92
2018-03-23T12:36:11.223Z,12.56
2018-03-23T12:38:39.244Z,11.71
2018-03-23T12:41:06.726Z,11.20
2018-03-23T12:43:34.239Z,10.40
2018-03-23T12:46:01.934Z,10.20
2018-03-23T12:48:29.396Z,10.04
2018-03-23T12:50:56.920Z,10.05
2018-03-23T12:53:24.521Z,10.36
2018-03-23T12:55:51.989Z,10.23
2018-03-23T12:58:19.448Z,10.35
2018-03-23T13:00:47.304Z,10.50
2018-03-23T13:03:15.160Z,9.98
2018-03-23T13:05:42.613Z,9.78
2018-03-23T13:08:10.621Z,10.36
2018-03-23T13:10:38.081Z,10.31
2018-03-23T13:13:05.546Z,9.98
2018-03-23T13:15:33.607Z,10.06
2018-03-23T13:18:01.069Z,10.00
2018-03-23T13:20:28.524Z,10.07
2018-03-23T13:22:56.598Z,10.00
2018-03-23T13:25:24.127Z,10.15
2018-03-23T13:27:51.579Z,10.59
2018-03-23T13:30:19.587Z,10.62
2018-03-23T13:32:47.049Z,10.41
2018-03-23T13:35:14.509Z,9.94
2018-03-23T13:37:42.597Z,9.25
2018-03-23T13:40:10.083Z,10.18
2018-03-23T13:42:37.552Z,9.99
2018-03-23T13:45:05.573Z,10.28
2018-03-23T13:47:33.029Z,9.62
2018-03-23T13:50:00.724Z,9.46
2018-03-23T13:52:28.589Z,9.59
2018-03-23T13:54:56.049Z,9.93
2018-03-23T13:57:25.230Z,10.01
2018-03-23T13:59:58.943Z,9.88
2018-03-23T14:02:26.430Z,9.68
2018-03-23T14:04:54.540Z,10.06
2018-03-23T14:07:22.547Z,10.03
2018-03-23T14:09:50.014Z,10.10
2018-03-23T14:12:17.478Z,9.82
2018-03-23T14:14:45.536Z,10.32
2018-03-23T14:17:12.998Z,9.83
2018-03-23T14:19:40.465Z,10.19
2018-03-23T14:22:08.233Z,10.07
2018-03-23T14:24:35.697Z,10.39
2018-03-23T14:27:03.174Z,10.42
2018-03-23T14:29:30.913Z,10.21
2018-03-23T14:31:58.381Z,10.68
2018-03-23T14:34:25.840Z,10.16
2018-03-23T14:36:53.597Z,10.24
2018-03-23T14:39:21.062Z,10.85
2018-03-23T14:41:48.527Z,10.59
2018-03-23T14:44:16.264Z,10.27
2018-03-23T14:46:43.737Z,10.55
2018-03-23T14:49:11.209Z,10.43
2018-03-23T14:51:38.978Z,10.93
2018-03-23T14:54:06.445Z,10.50
2018-03-23T14:56:33.909Z,10.60
2018-03-23T14:59:07.521Z,10.14
2018-03-23T15:01:34.976Z,10.35
2018-03-23T15:04:02.437Z,10.44
2018-03-23T15:06:30.813Z,9.96
2018-03-23T15:08:58.272Z,10.11
2018-03-23T15:11:25.739Z,10.32
2018-03-23T15:13:53.794Z,10.54
2018-03-23T15:16:21.267Z,10.66
2018-03-23T15:18:48.730Z,9.79
2018-03-23T15:21:16.664Z,10.36
2018-03-23T15:23:44.126Z,10.58
2018-03-23T15:26:11.862Z,10.34
2018-03-23T15:28:39.929Z,10.41
2018-03-23T15:31:07.397Z,10.48
2018-03-23T15:33:34.873Z,10.41
2018-03-23T15:36:02.777Z,10.61
2018-03-23T15:38:30.238Z,10.54
2018-03-23T15:40:57.703Z,10.96
2018-03-23T15:43:25.466Z,10.81
2018-03-23T15:45:52.938Z,10.99
2018-03-23T15:48:20.395Z,10.69
2018-03-23T15:50:48.305Z,10.89
2018-03-23T15:53:15.766Z,10.56
2018-03-23T15:55:43.224Z,10.30
2018-03-23T15:58:11.146Z,10.80
2018-03-23T16:00:38.615Z,10.76
2018-03-23T16:03:06.074Z,10.81
2018-03-23T16:05:33.829Z,10.58
2018-03-23T16:08:01.377Z,10.99
2018-03-23T16:10:28.850Z,11.13
2018-03-23T16:12:56.526Z,10.32
2018-03-23T16:15:23.989Z,10.42
2018-03-23T16:17:51.457Z,11.32
2018-03-23T16:20:19.270Z,10.93
2018-03-23T16:22:46.734Z,11.25
2018-03-23T16:25:14.192Z,10.68
2018-03-23T16:27:42.202Z,10.95
2018-03-23T16:30:09.671Z,10.74
2018-03-23T16:32:37.134Z,11.02
2018-03-23T16:35:04.896Z,10.64
2018-03-23T16:37:32.356Z,11.37
2018-03-23T16:39:59.823Z,11.04
2018-03-23T16:42:27.576Z,10.75
2018-03-23T16:44:55.046Z,10.52
2018-03-23T16:47:22.504Z,10.71
2018-03-23T16:49:50.271Z,11.24
2018-03-23T16:52:17.738Z,10.69
2018-03-23T16:54:45.205Z,10.04
2018-03-23T16:57:13.261Z,9.93
2018-03-23T16:59:40.722Z,10.17
2018-03-23T17:02:08.195Z,9.65
2018-03-23T17:04:35.949Z,9.84
2018-03-23T17:07:03.415Z,9.92
2018-03-23T17:09:31.298Z,9.98
2018-03-23T17:11:59.065Z,9.91
2018-03-23T17:14:26.520Z,10.09
2018-03-23T17:16:54.017Z,9.85
2018-03-23T17:19:22.399Z,10.30
2018-03-23T17:21:49.861Z,8.98
2018-03-23T17:24:17.318Z,9.61
2018-03-23T17:26:45.240Z,9.68
2018-03-23T17:29:12.707Z,9.94
2018-03-23T17:31:40.173Z,10.58
2018-03-23T17:34:07.925Z,10.37
2018-03-23T17:36:35.392Z,10.68
2018-03-23T17:39:02.934Z,10.18
2018-03-23T17:41:30.921Z,9.79
2018-03-23T17:43:58.398Z,10.50
2018-03-23T17:46:26.605Z,10.42
2018-03-23T17:48:54.795Z,9.93
2018-03-23T17:51:22.214Z,10.14
2018-03-23T17:53:49.677Z,10.03
2018-03-23T17:56:17.526Z,9.73
2018-03-23T17:58:44.981Z,9.64
2018-03-23T18:01:12.449Z,9.70
2018-03-23T18:03:40.204Z,10.61
2018-03-23T18:06:07.674Z,10.05
2018-03-23T18:08:35.136Z,10.19
2018-03-23T18:11:05.208Z,10.26
2018-03-23T18:13:32.673Z,10.08
2018-03-23T18:16:00.150Z,10.82
2018-03-23T18:18:28.034Z,10.80
2018-03-23T18:20:55.501Z,10.28
2018-03-23T18:23:22.958Z,10.22
2018-03-23T18:25:50.730Z,10.48
2018-03-23T18:28:18.202Z,10.32
2018-03-23T18:30:45.669Z,10.64
2018-03-23T18:33:13.797Z,10.61
2018-03-23T18:35:41.261Z,10.05
2018-03-23T18:38:08.724Z,10.47
2018-03-23T18:40:37.649Z,10.63
2018-03-23T18:43:05.146Z,10.15
2018-03-23T18:45:33.018Z,10.41
2018-03-23T18:48:00.940Z,10.77
2018-03-23T18:50:28.415Z,10.05
2018-03-23T18:52:55.881Z,10.59
2018-03-23T18:55:23.564Z,10.58
2018-03-23T18:57:51.033Z,10.33
2018-03-23T19:00:18.509Z,10.26
2018-03-23T19:02:46.315Z,10.52
2018-03-23T19:05:13.778Z,10.42
2018-03-23T19:07:41.245Z,10.95
2018-03-23T19:10:09.288Z,10.49
2018-03-23T19:12:37.510Z,10.67
2018-03-23T19:15:05.010Z,10.30
2018-03-23T19:17:32.912Z,10.45
2018-03-23T19:20:00.688Z,10.25
2018-03-23T19:22:28.856Z,10.83
2018-03-23T19:24:56.582Z,10.88
2018-03-23T19:27:24.124Z,10.88
2018-03-23T19:29:51.588Z,10.77
2018-03-23T19:32:19.522Z,11.01
2018-03-23T19:34:47.617Z,11.42
2018-03-23T19:37:15.094Z,10.92
2018-03-23T19:39:42.835Z,10.82
2018-03-23T19:42:10.311Z,11.30
2018-03-23T19:44:38.346Z,11.17
2018-03-23T19:47:06.512Z,10.96
2018-03-23T19:49:34.005Z,10.34
2018-03-23T19:52:01.461Z,10.92
2018-03-23T19:54:29.260Z,10.86
2018-03-23T19:56:56.775Z,11.25
2018-03-23T19:59:24.972Z,10.85
2018-03-23T20:01:52.722Z,11.05
2018-03-23T20:04:20.417Z,10.89
2018-03-23T20:06:47.898Z,10.56
2018-03-23T20:09:15.738Z,10.09
2018-03-23T20:11:43.472Z,10.28
2018-03-23T20:14:11.946Z,10.04
2018-03-23T20:16:40.142Z,10.55
2018-03-23T20:19:07.633Z,10.18
2018-03-23T20:21:35.127Z,10.40
2018-03-23T20:24:08.559Z,10.32
2018-03-23T20:26:36.025Z,10.13
2018-03-23T20:29:03.585Z,10.35
2018-03-23T20:31:37.352Z,9.88
2018-03-23T20:34:05.118Z,10.08
2018-03-23T20:36:33.066Z,9.98
2018-03-23T20:39:00.931Z,10.18
2018-03-23T20:41:28.429Z,10.03
2018-03-23T20:43:55.889Z,9.85
2018-03-23T20:46:23.901Z,10.20
2018-03-23T20:48:51.364Z,10.08
2018-03-23T20:51:18.834Z,10.20
2018-03-23T20:53:46.890Z,10.32
2018-03-23T20:56:14.362Z,9.94
2018-03-23T20:58:41.922Z,9.91
2018-03-23T21:01:09.818Z,9.46
2018-03-23T21:03:37.283Z,9.48
2018-03-23T21:06:04.754Z,9.62
2018-03-23T21:08:32.715Z,9.53
2018-03-23T21:11:00.175Z,9.54
2018-03-23T21:13:27.748Z,9.42
2018-03-23T21:15:55.874Z,9.79
2018-03-23T21:18:23.692Z,9.64
2018-03-23T21:20:51.159Z,9.41
2018-03-23T21:23:18.878Z,9.55
2018-03-23T21:25:46.334Z,9.51
2018-03-23T21:28:13.795Z,9.26
2018-03-23T21:30:41.876Z,9.39
2018-03-23T21:33:09.381Z,9.36
2018-03-23T21:35:36.924Z,9.51
2018-03-23T21:38:05.153Z,9.35
2018-03-23T21:40:32.619Z,9.49
2018-03-23T21:43:00.622Z,9.63
2018-03-23T21:45:28.764Z,9.50
2018-03-23T21:47:56.225Z,9.39
2018-03-23T21:50:23.689Z,9.41
2018-03-23T21:52:51.822Z,9.29
2018-03-23T21:55:19.312Z,8.99
2018-03-23T21:57:46.774Z,9.22
2018-03-23T22:00:14.491Z,9.18
2018-03-23T22:02:53.470Z,9.48
2018-03-23T22:05:21.478Z,9.38
2018-03-23T22:07:48.944Z,9.50
2018-03-23T22:10:16.394Z,9.63
2018-03-23T22:12:44.052Z,9.73
2018-03-23T22:15:11.513Z,9.54
2018-03-23T22:17:40.266Z,9.37
2018-03-23T22:20:07.957Z,9.24
2018-03-23T22:22:35.430Z,10.08
2018-03-23T22:25:02.906Z,10.12
2018-03-23T22:27:30.953Z,10.25
2018-03-23T22:29:58.423Z,9.95
2018-03-23T22:32:25.885Z,9.85
2018-03-23T22:34:53.642Z,9.73
2018-03-23T22:37:21.105Z,9.91
2018-03-23T22:39:48.570Z,9.84
2018-03-23T22:42:16.317Z,9.56
2018-03-23T22:44:43.779Z,9.49
2018-03-23T22:47:11.244Z,10.01
2018-03-23T22:49:39.014Z,9.89
2018-03-23T22:52:06.485Z,10.23
2018-03-23T22:54:33.946Z,10.46
2018-03-23T22:57:01.714Z,10.71
2018-03-23T22:59:29.180Z,11.00
2018-03-23T23:01:56.639Z,10.83
2018-03-23T23:04:24.398Z,10.93
2018-03-23T23:06:51.869Z,10.82
2018-03-23T23:09:19.322Z,10.97
2018-03-23T23:11:47.094Z,10.64
2018-03-23T23:14:14.554Z,10.79
2018-03-23T23:16:42.022Z,10.55
2018-03-23T23:19:09.961Z,10.46
2018-03-23T23:21:43.041Z,10.48
2018-03-23T23:24:10.506Z,10.85
2018-03-23T23:26:38.285Z,10.62
2018-03-23T23:29:05.778Z,10.68
2018-03-23T23:31:33.239Z,10.83
2018-03-23T23:34:01.289Z,10.98
2018-03-23T23:36:28.754Z,11.11
2018-03-23T23:38:56.218Z,11.16
2018-03-23T23:41:23.979Z,11.21
2018-03-23T23:43:51.448Z,11.14
2018-03-23T23:46:18.907Z,11.05
2018-03-23T23:48:46.653Z,10.72
2018-03-23T23:51:14.120Z,11.03
2018-03-23T23:53:41.576Z,11.14
2018-03-23T23:56:09.650Z,11.38
2018-03-23T23:58:37.129Z,11.12
